Time;durP1;ratioP1;P1;durP2;ratioP2;P2;SDS_P1;SDS_P2;PMS_P1;PMS_P2;Temp;Humidity;BMP_temperature;BMP_pressure;BME280_temperature;BME280_humidity;BME280_pressure;Samples;Min_cycle;Max_cycle;Signal;HPM_P1;HPM_P2
2022/04/05 00:00:43;;;;;;;28.55;17.23;;;;;;;9.43;100.00;100475.28;5030080;28;20082;-73
2022/04/05 00:03:08;;;;;;;36.63;17.50;;;;;;;9.43;100.00;100480.53;5057271;28;20033;-74
2022/04/05 00:05:34;;;;;;;26.02;16.65;;;;;;;9.43;100.00;100474.47;5019944;28;20030;-73
2022/04/05 00:07:59;;;;;;;26.05;15.45;;;;;;;9.41;100.00;100479.81;5027766;28;20036;-74
2022/04/05 00:10:25;;;;;;;34.72;15.98;;;;;;;9.40;100.00;100475.53;5029284;28;20025;-74
2022/04/05 00:12:51;;;;;;;23.20;14.77;;;;;;;9.40;100.00;100472.91;5053858;28;20039;-74
2022/04/05 00:15:16;;;;;;;29.48;15.40;;;;;;;9.40;100.00;100483.41;5029447;28;20037;-74
2022/04/05 00:17:41;;;;;;;31.27;14.55;;;;;;;9.38;100.00;100485.31;5023026;28;20057;-74
2022/04/05 00:20:08;;;;;;;31.67;14.77;;;;;;;9.38;100.00;100481.84;5030080;28;20155;-74
2022/04/05 00:22:34;;;;;;;28.55;14.77;;;;;;;9.37;100.00;100481.00;5029993;28;20029;-73
2022/04/05 00:25:00;;;;;;;30.27;14.68;;;;;;;9.38;100.00;100484.47;5029776;28;20021;-74
2022/04/05 00:27:25;;;;;;;29.10;14.88;;;;;;;9.37;100.00;100486.25;5030048;28;20033;-74
2022/04/05 00:29:51;;;;;;;24.52;15.20;;;;;;;9.37;100.00;100493.31;5029247;28;20117;-74
2022/04/05 00:32:16;;;;;;;30.55;14.88;;;;;;;9.36;100.00;100487.22;5030467;28;20057;-74
2022/04/05 00:34:41;;;;;;;32.42;15.25;;;;;;;9.35;100.00;100489.94;5029984;28;20397;-74
2022/04/05 00:37:07;;;;;;;29.75;15.23;;;;;;;9.34;100.00;100488.28;5030131;28;20031;-74
2022/04/05 00:39:32;;;;;;;30.67;15.35;;;;;;;9.33;100.00;100484.81;5032319;28;20493;-74
2022/04/05 00:41:58;;;;;;;28.92;14.85;;;;;;;9.34;100.00;100485.66;5034554;28;20033;-74
2022/04/05 00:44:24;;;;;;;27.55;15.13;;;;;;;9.33;100.00;100479.56;5028858;28;20040;-73
2022/04/05 00:46:52;;;;;;;26.35;14.40;;;;;;;9.33;100.00;100482.19;5032854;28;20384;-75
2022/04/05 00:49:33;;;;;;;27.15;15.15;;;;;;;9.34;100.00;100491.75;5029541;28;20029;-75
2022/04/05 00:51:58;;;;;;;26.95;15.18;;;;;;;9.33;100.00;100473.47;5030720;28;20035;-75
2022/04/05 00:54:25;;;;;;;34.15;15.60;;;;;;;9.30;100.00;100485.03;5030159;28;20040;-75
2022/04/05 00:56:53;;;;;;;30.92;14.93;;;;;;;9.32;100.00;100495.44;5029423;28;20544;-73
2022/04/05 00:59:20;;;;;;;26.15;15.90;;;;;;;9.30;100.00;100486.84;5028563;28;20080;-75
2022/04/05 01:01:46;;;;;;;25.52;15.57;;;;;;;9.31;100.00;100491.97;5029334;28;20029;-76
2022/04/05 01:04:12;;;;;;;28.25;15.40;;;;;;;9.29;100.00;100491.25;5029625;28;20028;-75
2022/04/05 01:06:43;;;;;;;26.30;15.27;;;;;;;9.29;100.00;100495.66;5029735;28;20394;-75
2022/04/05 01:09:09;;;;;;;31.07;16.33;;;;;;;9.30;100.00;100492.09;5030101;28;20029;-75
2022/04/05 01:11:35;;;;;;;25.65;15.30;;;;;;;9.28;100.00;100489.56;5034223;28;20028;-75
2022/04/05 01:14:01;;;;;;;29.38;15.80;;;;;;;9.29;100.00;100496.50;5043792;28;20021;-75
2022/04/05 01:16:26;;;;;;;28.67;15.73;;;;;;;9.28;100.00;100494.00;5034727;28;20397;-78
2022/04/05 01:18:52;;;;;;;29.83;15.88;;;;;;;9.29;100.00;100490.41;5027655;28;20112;-78
2022/04/05 01:21:18;;;;;;;27.63;16.40;;;;;;;9.28;100.00;100494.81;5028905;28;20755;-78
2022/04/05 01:24:05;;;;;;;34.35;15.63;;;;;;;9.30;100.00;100494.72;5027077;28;20136;-75
2022/04/05 01:26:52;;;;;;;28.13;15.63;;;;;;;9.29;100.00;100501.75;5026565;28;20025;-78
2022/04/05 01:29:19;;;;;;;30.08;15.77;;;;;;;9.28;100.00;100499.25;5028647;28;20076;-75
2022/04/05 01:31:47;;;;;;;30.70;16.15;;;;;;;9.27;100.00;100498.41;5027550;28;20021;-75
2022/04/05 01:34:15;;;;;;;30.80;16.05;;;;;;;9.25;100.00;100505.56;5028275;28;20049;-75
2022/04/05 01:36:46;;;;;;;29.15;16.10;;;;;;;9.25;100.00;100505.56;5043511;28;20033;-78
2022/04/05 01:39:12;;;;;;;27.58;15.45;;;;;;;9.25;100.00;100499.47;5024675;28;20448;-78
2022/04/05 01:41:38;;;;;;;26.67;15.13;;;;;;;9.26;100.00;100506.41;5033757;28;20048;-78
2022/04/05 01:44:05;;;;;;;25.83;15.20;;;;;;;9.25;100.00;100505.56;5029334;28;20018;-78
2022/04/05 01:46:32;;;;;;;27.15;14.82;;;;;;;9.24;100.00;100503.03;5029158;28;20571;-78
2022/04/05 01:48:57;;;;;;;27.40;15.23;;;;;;;9.23;100.00;100507.47;5029131;28;21416;-78
2022/04/05 01:51:22;;;;;;;25.45;14.75;;;;;;;9.21;100.00;100504.13;5023100;28;20021;-78
2022/04/05 01:53:48;;;;;;;29.52;15.52;;;;;;;9.21;100.00;100504.13;5028700;28;20025;-78
2022/04/05 01:56:13;;;;;;;24.23;14.38;;;;;;;9.22;100.00;100507.56;5024057;28;20029;-78
2022/04/05 01:58:38;;;;;;;29.55;13.90;;;;;;;9.22;100.00;100503.16;5029200;28;20021;-78
2022/04/05 02:01:04;;;;;;;25.85;14.25;;;;;;;9.22;100.00;100500.53;5026264;28;20064;-77
2022/04/05 02:03:30;;;;;;;27.60;14.02;;;;;;;9.21;100.00;100506.75;5028724;28;20103;-75
2022/04/05 02:05:55;;;;;;;24.20;14.27;;;;;;;9.20;100.00;100501.56;5029143;28;20037;-78
2022/04/05 02:08:20;;;;;;;22.33;14.10;;;;;;;9.21;100.00;100511.16;5028028;28;20067;-77
2022/04/05 02:10:46;;;;;;;25.70;14.25;;;;;;;9.20;100.00;100502.41;5026978;28;20389;-78
2022/04/05 02:13:11;;;;;;;24.88;13.60;;;;;;;9.21;100.00;100500.66;5027025;28;20052;-77
2022/04/05 02:15:37;;;;;;;22.13;13.85;;;;;;;9.21;100.00;100503.28;5033111;28;20021;-78
2022/04/05 02:18:02;;;;;;;22.98;13.25;;;;;;;9.19;100.00;100500.72;5032315;28;20441;-78
2022/04/05 02:20:27;;;;;;;21.02;12.50;;;;;;;9.19;100.00;100500.72;5027659;28;20104;-75
2022/04/05 02:22:53;;;;;;;23.33;13.50;;;;;;;9.20;100.00;100506.81;5027187;28;20056;-76
2022/04/05 02:25:18;;;;;;;23.50;13.27;;;;;;;9.17;100.00;100500.00;5026637;28;20025;-75
2022/04/05 02:27:43;;;;;;;20.98;12.73;;;;;;;9.18;100.00;100499.06;5027213;28;20025;-75
2022/04/05 02:30:10;;;;;;;22.38;13.40;;;;;;;9.17;100.00;100505.25;5026546;28;20097;-78
2022/04/05 02:32:36;;;;;;;22.38;12.80;;;;;;;9.17;100.00;100502.63;5038601;28;20022;-78
2022/04/05 02:35:02;;;;;;;22.85;12.77;;;;;;;9.18;100.00;100504.31;5022962;28;20099;-78
2022/04/05 02:37:28;;;;;;;24.33;13.88;;;;;;;9.17;100.00;100505.25;5049257;28;20116;-77
2022/04/05 02:39:53;;;;;;;27.20;14.52;;;;;;;9.18;100.00;100504.31;5026350;28;20108;-77
2022/04/05 02:42:18;;;;;;;27.40;14.23;;;;;;;9.18;100.00;100503.47;5026981;28;20053;-78
2022/04/05 02:44:44;;;;;;;24.42;13.63;;;;;;;9.18;100.00;100509.56;5021591;28;20064;-76
2022/04/05 02:47:12;;;;;;;28.00;14.77;;;;;;;9.17;100.00;100507.03;5027520;28;20112;-76
2022/04/05 02:49:37;;;;;;;23.98;14.48;;;;;;;9.18;100.00;100503.47;5019571;28;20030;-76
2022/04/05 02:52:03;;;;;;;25.35;14.40;;;;;;;9.18;100.00;100504.31;5028932;28;20107;-77
2022/04/05 02:54:30;;;;;;;28.08;14.30;;;;;;;9.17;100.00;100505.25;5032569;28;20040;-78
2022/04/05 02:56:55;;;;;;;24.63;13.88;;;;;;;9.17;100.00;100507.03;5022559;28;20095;-78
2022/04/05 02:59:20;;;;;;;27.50;14.98;;;;;;;9.16;100.00;100503.59;5047177;28;20062;-78
2022/04/05 03:01:46;;;;;;;27.58;14.52;;;;;;;9.16;100.00;100500.97;5033004;28;20021;-77
2022/04/05 03:04:12;;;;;;;25.50;14.15;;;;;;;9.15;100.00;100503.69;5034182;28;20113;-77
2022/04/05 03:06:37;;;;;;;24.23;14.63;;;;;;;9.15;100.00;100499.28;5024711;28;20029;-78
2022/04/05 03:09:03;;;;;;;25.58;14.73;;;;;;;9.16;100.00;100503.59;5031783;28;20588;-75
2022/04/05 03:11:28;;;;;;;27.33;14.82;;;;;;;9.14;100.00;100502.88;5031841;28;20087;-76
2022/04/05 03:13:53;;;;;;;25.40;14.07;;;;;;;9.15;100.00;100507.16;5032351;28;20025;-77
2022/04/05 03:16:19;;;;;;;22.27;14.05;;;;;;;9.15;100.00;100508.94;5030956;28;20488;-77
2022/04/05 03:18:46;;;;;;;25.15;14.43;;;;;;;9.15;100.00;100504.53;5063532;28;20202;-78
2022/04/05 03:21:13;;;;;;;22.70;13.82;;;;;;;9.16;100.00;100511.47;5031401;28;20041;-78
2022/04/05 03:23:39;;;;;;;23.05;14.05;;;;;;;9.15;100.00;100499.28;5030316;28;20028;-76
2022/04/05 03:26:04;;;;;;;26.70;14.23;;;;;;;9.13;100.00;100500.34;5032439;28;20055;-75
2022/04/05 03:28:33;;;;;;;20.27;13.88;;;;;;;9.13;100.00;100505.59;5032751;28;20116;-78
2022/04/05 03:30:59;;;;;;;29.60;14.25;;;;;;;9.13;100.00;100506.44;5056916;28;20490;-78
2022/04/05 03:33:24;;;;;;;26.55;14.57;;;;;;;9.13;100.00;100503.81;5028634;28;20115;-78
2022/04/05 03:38:34;;;;;;;22.30;13.77;;;;;;;9.15;100.00;100501.91;4212859;26;20053;-73
2022/04/05 03:40:59;;;;;;;23.98;14.65;;;;;;;9.14;100.00;100499.41;5009769;28;20041;-73
2022/04/05 03:43:25;;;;;;;25.27;14.20;;;;;;;9.14;100.00;100497.63;5012486;28;20073;-73
2022/04/05 03:45:50;;;;;;;27.60;14.32;;;;;;;9.11;100.00;100492.59;5003031;28;20021;-73
2022/04/05 03:48:16;;;;;;;22.85;13.80;;;;;;;9.10;100.00;100496.16;5013342;28;20504;-74
2022/04/05 03:50:42;;;;;;;23.52;13.82;;;;;;;9.09;100.00;100494.50;5012136;28;20117;-73
2022/04/05 03:53:07;;;;;;;23.10;13.38;;;;;;;9.09;100.00;100499.75;5007051;28;20022;-73
2022/04/05 03:55:33;;;;;;;23.00;13.75;;;;;;;9.08;100.00;100496.28;5002207;28;20023;-74
2022/04/05 03:57:58;;;;;;;22.27;13.25;;;;;;;9.09;100.00;100497.13;5009053;28;20022;-74
2022/04/05 04:00:24;;;;;;;22.10;13.98;;;;;;;9.09;100.00;100499.75;5009472;28;20038;-73
2022/04/05 04:02:49;;;;;;;21.77;12.98;;;;;;;9.08;100.00;100492.81;5004689;28;20402;-73
2022/04/05 04:05:17;;;;;;;25.33;14.38;;;;;;;9.08;100.00;100492.81;5000967;28;20043;-73
2022/04/05 04:07:44;;;;;;;24.67;13.23;;;;;;;9.07;100.00;100505.09;5004861;28;20038;-73
2022/04/05 04:10:09;;;;;;;21.70;13.70;;;;;;;9.07;100.00;100491.16;5004911;28;20049;-74
2022/04/05 04:12:35;;;;;;;18.85;12.85;;;;;;;9.06;100.00;100492.09;5010995;28;20028;-74
2022/04/05 04:15:01;;;;;;;22.00;13.38;;;;;;;9.05;100.00;100491.25;5006763;28;20104;-74
2022/04/05 04:17:26;;;;;;;21.63;13.13;;;;;;;9.08;100.00;100496.28;5015747;28;20033;-74
2022/04/05 04:19:52;;;;;;;22.73;13.27;;;;;;;9.06;100.00;100505.22;4999612;28;20072;-73
2022/04/05 04:22:18;;;;;;;19.40;12.60;;;;;;;9.07;100.00;100496.41;5008048;28;20386;-73
2022/04/05 04:24:43;;;;;;;22.80;13.73;;;;;;;9.06;100.00;100499.97;5012397;28;20029;-73
2022/04/05 04:27:11;;;;;;;19.90;13.05;;;;;;;9.06;100.00;100494.72;5011835;28;20088;-73
2022/04/05 04:29:37;;;;;;;19.65;13.63;;;;;;;9.05;100.00;100506.16;5010757;28;20489;-74
2022/04/05 04:32:03;;;;;;;18.65;12.82;;;;;;;9.07;100.00;100506.88;5008320;28;20061;-72
2022/04/05 04:34:28;;;;;;;19.73;13.07;;;;;;;9.05;100.00;100496.50;5006203;28;20408;-72
2022/04/05 04:36:54;;;;;;;21.77;13.55;;;;;;;9.07;100.00;100493.78;5010401;28;20054;-72
2022/04/05 04:39:19;;;;;;;22.08;13.93;;;;;;;9.06;100.00;100499.97;5008828;28;20025;-72
2022/04/05 04:41:44;;;;;;;20.05;13.70;;;;;;;9.05;100.00;100495.66;5006637;28;20501;-72
2022/04/05 04:44:10;;;;;;;21.55;13.75;;;;;;;9.04;100.00;100496.63;5009981;28;20510;-72
2022/04/05 04:46:39;;;;;;;21.20;13.25;;;;;;;9.06;100.00;100497.34;5008610;28;20034;-72
2022/04/05 04:49:04;;;;;;;21.45;13.00;;;;;;;9.06;100.00;100494.72;5006885;28;20103;-72
2022/04/05 04:51:29;;;;;;;19.83;13.10;;;;;;;9.06;100.00;100498.19;5005752;28;20490;-72
2022/04/05 04:53:55;;;;;;;20.08;13.75;;;;;;;9.07;100.00;100506.88;5010010;28;20022;-72
2022/04/05 04:56:20;;;;;;;19.10;13.40;;;;;;;9.08;100.00;100503.31;5008635;28;20053;-73
2022/04/05 04:58:45;;;;;;;18.15;13.20;;;;;;;9.06;100.00;100511.31;5008988;28;20025;-72
2022/04/05 05:01:11;;;;;;;19.70;13.40;;;;;;;9.05;100.00;100507.00;5007739;28;20018;-72
2022/04/05 05:03:36;;;;;;;20.63;13.65;;;;;;;9.06;100.00;100510.47;5010202;28;20108;-72
2022/04/05 05:06:04;;;;;;;20.92;12.90;;;;;;;9.05;100.00;100498.28;5009024;28;20159;-72
2022/04/05 05:08:30;;;;;;;18.55;13.45;;;;;;;9.05;100.00;100514.88;5011255;28;20113;-72
2022/04/05 05:10:55;;;;;;;21.90;14.38;;;;;;;9.04;100.00;100512.38;5007162;28;20153;-72
2022/04/05 05:13:21;;;;;;;18.50;12.55;;;;;;;9.05;100.00;100508.78;5005306;28;20189;-72
2022/04/05 05:15:47;;;;;;;20.52;12.80;;;;;;;9.06;100.00;100515.72;5011217;28;20091;-71
2022/04/05 05:18:12;;;;;;;17.52;12.80;;;;;;;9.05;100.00;100514.03;5003926;28;20243;-74
2022/04/05 05:20:38;;;;;;;22.38;13.20;;;;;;;9.04;100.00;100502.69;5010617;28;20393;-74
2022/04/05 05:23:03;;;;;;;19.48;12.20;;;;;;;9.03;100.00;100516.78;5009036;28;20156;-74
2022/04/05 05:25:28;;;;;;;16.15;13.02;;;;;;;9.04;100.00;100512.38;5010150;28;20489;-74
2022/04/05 05:27:54;;;;;;;16.70;12.68;;;;;;;9.04;100.00;100520.25;5010626;28;20101;-74
2022/04/05 05:30:19;;;;;;;18.50;12.40;;;;;;;9.02;100.00;100519.50;5010651;28;20029;-74
2022/04/05 05:32:47;;;;;;;18.98;13.35;;;;;;;9.03;100.00;100518.56;5010896;28;20077;-74
2022/04/05 05:35:16;;;;;;;15.05;12.45;;;;;;;9.01;100.00;100517.84;5010627;28;20072;-74
2022/04/05 05:37:42;;;;;;;20.98;13.80;;;;;;;9.00;100.00;100519.63;5008557;28;20191;-73
2022/04/05 05:40:09;;;;;;;17.80;13.05;;;;;;;9.03;100.00;100515.94;5009351;28;20025;-73
2022/04/05 05:42:34;;;;;;;18.77;13.77;;;;;;;9.03;100.00;100521.19;5009882;28;20048;-72
2022/04/05 05:44:59;;;;;;;17.13;13.57;;;;;;;9.03;100.00;100522.03;5008042;28;20018;-72
2022/04/05 05:47:25;;;;;;;21.48;14.90;;;;;;;9.03;100.00;100521.19;5009034;28;20048;-72
2022/04/05 05:49:50;;;;;;;24.40;14.82;;;;;;;9.04;100.00;100528.13;5008862;28;20030;-73
2022/04/05 05:52:15;;;;;;;21.67;14.90;;;;;;;9.04;100.00;100535.97;5024612;28;20053;-73
2022/04/05 05:54:41;;;;;;;21.95;15.02;;;;;;;9.04;100.00;100538.59;5010203;28;20018;-71
2022/04/05 05:57:07;;;;;;;23.05;14.80;;;;;;;9.03;100.00;100537.78;5014120;28;20032;-72
2022/04/05 05:59:32;;;;;;;22.77;15.20;;;;;;;9.02;100.00;100541.34;5010520;28;20561;-73
2022/04/05 06:01:57;;;;;;;19.95;14.50;;;;;;;9.04;100.00;100539.44;5008875;28;20026;-73
2022/04/05 06:04:23;;;;;;;25.75;15.63;;;;;;;9.03;100.00;100543.03;5009646;28;20111;-73
2022/04/05 06:06:48;;;;;;;20.50;15.55;;;;;;;9.03;100.00;100542.19;5009715;28;20041;-73
2022/04/05 06:09:13;;;;;;;23.08;14.88;;;;;;;9.04;100.00;100543.84;5008929;28;20037;-73
2022/04/05 06:11:39;;;;;;;23.70;15.75;;;;;;;9.03;100.00;100542.19;5003217;28;20037;-73
2022/04/05 06:14:04;;;;;;;24.35;14.65;;;;;;;9.03;100.00;100547.44;5009254;28;20017;-73
2022/04/05 06:16:30;;;;;;;22.63;14.70;;;;;;;9.04;100.00;100549.09;5008517;28;20053;-73
2022/04/05 06:18:55;;;;;;;22.65;13.95;;;;;;;9.04;100.00;100546.47;5009030;28;20022;-73
2022/04/05 06:21:21;;;;;;;24.98;15.38;;;;;;;9.03;100.00;100553.50;5008358;28;20410;-72
2022/04/05 06:23:46;;;;;;;20.48;14.25;;;;;;;9.03;100.00;100543.03;5007350;28;20022;-72
2022/04/05 06:26:11;;;;;;;26.33;14.68;;;;;;;9.03;100.00;100557.94;5006954;28;20156;-72
2022/04/05 06:28:38;;;;;;;22.30;13.93;;;;;;;9.05;100.00;100556.88;5007774;28;20062;-71
2022/04/05 06:31:04;;;;;;;20.85;14.02;;;;;;;9.05;100.00;100554.25;5009208;28;20029;-72
2022/04/05 06:33:29;;;;;;;23.25;13.55;;;;;;;9.05;100.00;100556.03;5008813;28;20033;-72
2022/04/05 06:35:57;;;;;;;21.65;13.20;;;;;;;9.07;100.00;100557.59;5005207;28;20068;-72
2022/04/05 06:38:23;;;;;;;21.70;12.52;;;;;;;9.08;100.00;100568.94;5007202;28;20050;-72
2022/04/05 06:40:49;;;;;;;24.50;13.27;;;;;;;9.09;100.00;100565.34;5009313;28;20516;-72
2022/04/05 06:43:16;;;;;;;20.75;12.10;;;;;;;9.10;100.00;100567.03;5008639;28;20033;-74
2022/04/05 06:45:43;;;;;;;19.25;11.88;;;;;;;9.11;100.00;100566.06;5008400;28;20021;-74
2022/04/05 06:48:12;;;;;;;22.63;12.20;;;;;;;9.13;100.00;100565.97;5007637;28;20526;-74
2022/04/05 06:50:38;;;;;;;20.02;12.50;;;;;;;9.15;100.00;100566.69;5007399;28;20022;-74
2022/04/05 06:53:05;;;;;;;19.75;12.07;;;;;;;9.14;100.00;100571.09;5007249;28;20080;-74
2022/04/05 06:55:31;;;;;;;21.75;12.25;;;;;;;9.17;100.00;100575.28;5008234;28;20022;-74
2022/04/05 06:57:56;;;;;;;20.73;11.27;;;;;;;9.17;100.00;100576.13;5009403;28;20084;-74
2022/04/05 07:00:23;;;;;;;18.80;11.65;;;;;;;9.17;100.00;100578.75;5008828;28;20060;-74
2022/04/05 07:02:51;;;;;;;16.67;11.25;;;;;;;9.18;100.00;100577.81;5007884;28;20037;-74
2022/04/05 07:05:16;;;;;;;19.58;11.00;;;;;;;9.18;100.00;100580.44;5007351;28;20038;-69
2022/04/05 07:07:42;;;;;;;20.13;11.02;;;;;;;9.17;100.00;100576.13;5003481;28;20760;-72
2022/04/05 07:10:10;;;;;;;19.58;11.68;;;;;;;9.19;100.00;100581.25;5004496;28;20101;-72
2022/04/05 07:12:36;;;;;;;19.52;10.50;;;;;;;9.20;100.00;100583.78;5007277;28;20026;-72
2022/04/05 07:15:03;;;;;;;19.08;11.35;;;;;;;9.20;100.00;100578.53;5008576;28;20482;-72
2022/04/05 07:17:31;;;;;;;16.92;10.38;;;;;;;9.21;100.00;100577.59;5007852;28;20030;-72
2022/04/05 07:19:56;;;;;;;19.30;10.18;;;;;;;9.22;100.00;100579.28;5008225;28;20399;-72
2022/04/05 07:22:24;;;;;;;18.58;9.63;;;;;;;9.25;100.00;100583.47;5006659;28;20026;-72
2022/04/05 07:24:49;;;;;;;16.77;9.90;;;;;;;9.25;100.00;100581.69;5003385;28;20054;-72
2022/04/05 07:27:14;;;;;;;13.07;9.27;;;;;;;9.26;100.00;100583.38;5009288;28;20055;-72
2022/04/05 07:29:40;;;;;;;16.90;9.77;;;;;;;9.26;100.00;100580.72;5008523;28;20662;-73
2022/04/05 07:32:06;;;;;;;13.52;9.13;;;;;;;9.27;100.00;100578.94;5006606;28;20053;-73
2022/04/05 07:34:31;;;;;;;16.27;9.20;;;;;;;9.27;100.00;100577.16;5008708;28;20022;-73
2022/04/05 07:36:57;;;;;;;17.33;9.15;;;;;;;9.28;100.00;100567.50;5008013;28;20037;-73
2022/04/05 07:39:23;;;;;;;17.17;8.98;;;;;;;9.27;100.00;100569.28;5009522;28;20030;-72
2022/04/05 07:41:49;;;;;;;17.23;9.40;;;;;;;9.28;100.00;100568.34;5010342;28;20018;-72
2022/04/05 07:44:14;;;;;;;15.85;8.77;;;;;;;9.29;100.00;100569.16;5008325;28;20029;-72
2022/04/05 07:46:39;;;;;;;18.40;9.45;;;;;;;9.30;100.00;100579.56;5010042;28;20112;-72
2022/04/05 07:49:05;;;;;;;18.17;9.25;;;;;;;9.30;100.00;100574.31;5010299;28;20581;-71
2022/04/05 07:51:30;;;;;;;17.60;9.35;;;;;;;9.32;100.00;100574.19;5011640;28;20026;-72
2022/04/05 07:53:56;;;;;;;16.73;9.02;;;;;;;9.34;100.00;100578.38;5012712;28;20034;-71
2022/04/05 07:56:21;;;;;;;17.58;8.75;;;;;;;9.35;100.00;100574.81;5008719;28;20397;-72
2022/04/05 07:58:47;;;;;;;18.30;8.65;;;;;;;9.36;100.00;100581.72;5011658;28;20481;-73
2022/04/05 08:01:12;;;;;;;17.08;8.80;;;;;;;9.37;100.00;100580.78;5012216;28;20033;-73
2022/04/05 08:03:38;;;;;;;12.57;8.55;;;;;;;9.38;100.00;100574.59;5011627;28;20030;-71
2022/04/05 08:06:04;;;;;;;14.73;7.85;;;;;;;9.40;100.00;100577.09;5011741;28;20113;-72
2022/04/05 08:08:30;;;;;;;16.70;8.27;;;;;;;9.41;100.00;100587.47;5012422;28;20105;-72
2022/04/05 08:10:57;;;;;;;13.52;8.43;;;;;;;9.43;100.00;100574.25;5012387;28;20929;-72
2022/04/05 08:13:22;;;;;;;12.13;8.27;;;;;;;9.46;100.00;100576.63;5010158;28;20478;-72
2022/04/05 08:15:48;;;;;;;15.07;8.02;;;;;;;9.48;100.00;100581.78;5012381;28;20025;-72
2022/04/05 08:18:14;;;;;;;12.18;7.95;;;;;;;9.49;100.00;100576.41;5012171;28;20033;-72
2022/04/05 08:20:41;;;;;;;14.15;8.13;;;;;;;9.51;100.00;100584.19;5011154;28;20022;-72
2022/04/05 08:23:08;;;;;;;11.50;7.75;;;;;;;9.51;100.00;100584.19;5012049;28;20025;-72
2022/04/05 08:25:33;;;;;;;11.63;7.80;;;;;;;9.52;100.00;100580.59;5010084;28;20033;-73
2022/04/05 08:27:59;;;;;;;18.95;7.85;;;;;;;9.56;100.00;100582.03;5012877;28;20478;-72
2022/04/05 08:30:24;;;;;;;10.80;7.55;;;;;;;9.56;100.00;100585.50;5011801;28;20032;-73
2022/04/05 08:32:49;;;;;;;14.20;8.02;;;;;;;9.59;100.00;100587.91;5011372;28;20024;-73
2022/04/05 08:35:21;;;;;;;13.00;7.60;;;;;;;9.62;100.00;100589.50;5011779;28;20026;-73
2022/04/05 08:37:47;;;;;;;12.25;7.80;;;;;;;9.65;100.00;100602.41;5010215;28;20145;-73
2022/04/05 08:40:14;;;;;;;14.63;8.13;;;;;;;9.66;100.00;100583.91;5010836;28;20504;-73
2022/04/05 08:42:42;;;;;;;13.73;7.97;;;;;;;9.69;100.00;100582.84;5011665;28;20382;-72
2022/04/05 08:45:10;;;;;;;12.85;7.55;;;;;;;9.71;100.00;100594.91;5009923;28;20022;-73
2022/04/05 08:47:39;;;;;;;11.60;7.47;;;;;;;9.75;100.00;100598.13;5009991;28;20030;-72
2022/04/05 08:50:05;;;;;;;13.50;7.63;;;;;;;9.78;100.00;100597.91;5011484;28;20053;-72
2022/04/05 08:52:30;;;;;;;14.30;7.15;;;;;;;9.79;100.00;100596.94;5010716;28;20371;-72
2022/04/05 08:54:56;;;;;;;13.38;8.00;;;;;;;9.80;100.00;100593.38;5010862;28;20095;-72
2022/04/05 08:57:21;;;;;;;15.00;8.00;;;;;;;9.79;100.00;100594.31;5010041;28;20021;-73
2022/04/05 08:59:48;;;;;;;10.50;7.60;;;;;;;9.84;100.00;100600.06;5011532;28;20029;-72
2022/04/05 09:02:14;;;;;;;12.00;7.72;;;;;;;9.85;100.00;100604.38;5011072;28;20521;-73
2022/04/05 09:04:40;;;;;;;11.10;7.75;;;;;;;9.87;100.00;100597.22;5010117;28;20028;-72
2022/04/05 09:07:40;;;;;;;15.18;8.20;;;;;;;9.91;100.00;100598.66;5011590;28;20108;-73
2022/04/05 09:10:13;;;;;;;12.30;7.65;;;;;;;9.89;100.00;100605.81;4989118;28;20042;-72
2022/04/05 09:12:47;;;;;;;9.23;7.75;;;;;;;9.92;100.00;100604.75;5010022;28;20018;-73
2022/04/05 09:15:24;;;;;;;12.55;8.02;;;;;;;9.94;100.00;100603.66;5010663;28;20029;-72
2022/04/05 09:17:50;;;;;;;12.25;8.50;;;;;;;9.98;100.00;100604.28;5011933;28;20043;-73
2022/04/05 09:20:17;;;;;;;15.10;8.32;;;;;;;9.98;100.00;100605.13;5011332;28;20481;-73
2022/04/05 09:22:44;;;;;;;12.40;8.55;;;;;;;10.01;100.00;100606.69;5011181;28;20038;-72
2022/04/05 09:25:12;;;;;;;14.15;8.73;;;;;;;10.02;100.00;100611.84;5011022;28;20070;-73
2022/04/05 09:27:46;;;;;;;12.75;8.65;;;;;;;10.06;100.00;100612.44;5009407;28;20022;-73
2022/04/05 09:30:14;;;;;;;13.50;8.43;;;;;;;10.09;100.00;100612.22;5008162;28;20494;-73
2022/04/05 09:32:44;;;;;;;13.65;9.00;;;;;;;10.12;100.00;100611.13;5022610;28;20029;-72
2022/04/05 09:35:11;;;;;;;13.68;9.30;;;;;;;10.14;100.00;100620.59;5011171;28;20061;-72
2022/04/05 09:37:38;;;;;;;12.82;9.18;;;;;;;10.13;100.00;100618.91;4999104;28;20056;-73
2022/04/05 09:40:32;;;;;;;14.55;9.15;;;;;;;10.19;100.00;100617.59;5010169;28;20030;-72
2022/04/05 09:43:04;;;;;;;13.95;9.60;;;;;;;10.20;100.00;100616.66;5013102;28;20394;-73
2022/04/05 09:45:51;;;;;;;13.80;9.52;;;;;;;10.24;100.00;100624.22;5015522;28;20037;-73
2022/04/05 09:48:19;;;;;;;16.85;9.38;;;;;;;10.22;100.00;100625.28;5011135;28;20038;-73
2022/04/05 09:51:06;;;;;;;15.48;9.13;;;;;;;10.25;100.00;100622.41;5009945;28;20026;-73
2022/04/05 09:53:42;;;;;;;12.15;9.25;;;;;;;10.28;100.00;100616.94;5011376;28;20088;-73
2022/04/05 09:56:13;;;;;;;13.57;8.95;;;;;;;10.28;100.00;100622.19;5010958;28;20022;-73
2022/04/05 09:58:47;;;;;;;15.27;9.70;;;;;;;10.30;100.00;100613.22;4994938;28;20104;-73
2022/04/05 10:01:13;;;;;;;13.52;9.40;;;;;;;10.31;100.00;100620.16;5008800;28;20088;-73
2022/04/05 10:03:41;;;;;;;11.15;8.88;;;;;;;10.32;100.00;100621.00;5008977;28;20022;-73
2022/04/05 10:06:06;;;;;;;13.82;8.23;;;;;;;10.33;100.00;100614.78;5008609;28;20501;-73
2022/04/05 10:08:34;;;;;;;12.57;8.40;;;;;;;10.35;100.00;100623.38;5009407;28;20112;-73
2022/04/05 10:11:03;;;;;;;11.43;8.43;;;;;;;10.36;100.00;100627.69;5011044;28;20018;-73
2022/04/05 10:13:29;;;;;;;11.95;7.95;;;;;;;10.37;100.00;100616.22;5011178;28;20387;-73
2022/04/05 10:15:56;;;;;;;9.68;7.72;;;;;;;10.36;100.00;100620.63;5012057;28;20041;-73
2022/04/05 10:18:24;;;;;;;9.15;7.60;;;;;;;10.39;100.00;100624.00;5010865;28;20032;-73
2022/04/05 10:20:51;;;;;;;13.23;7.75;;;;;;;10.43;100.00;100626.28;5011618;28;20084;-73
2022/04/05 10:23:22;;;;;;;10.55;7.20;;;;;;;10.46;100.00;100619.97;5012521;28;20026;-73
2022/04/05 10:25:50;;;;;;;11.48;7.20;;;;;;;10.48;100.00;100626.78;5010833;28;20061;-73
2022/04/05 10:28:17;;;;;;;11.18;7.20;;;;;;;10.52;100.00;100630.84;5009909;28;20052;-73
2022/04/05 10:31:08;;;;;;;9.35;6.85;;;;;;;10.55;100.00;100630.59;5011935;28;20029;-73
2022/04/05 10:33:54;;;;;;;8.15;6.75;;;;;;;10.57;100.00;100623.44;5002560;28;20045;-73
2022/04/05 10:36:24;;;;;;;10.23;6.25;;;;;;;10.59;100.00;100618.88;5010031;28;20038;-73
2022/04/05 10:39:18;;;;;;;13.07;7.72;;;;;;;10.64;100.00;100624.63;5009380;28;20057;-73
2022/04/05 10:42:12;;;;;;;10.15;6.82;;;;;;;10.67;100.00;100621.75;5009752;28;20036;-73
2022/04/05 10:44:51;;;;;;;10.80;6.40;;;;;;;10.68;100.00;100618.16;5009910;28;20029;-73
2022/04/05 10:47:16;;;;;;;11.20;7.15;;;;;;;10.72;100.00;100617.91;5006246;28;20474;-73
2022/04/05 10:49:50;;;;;;;9.85;6.60;;;;;;;10.75;100.00;100623.78;5010014;28;20080;-73
2022/04/05 10:52:31;;;;;;;9.27;6.90;;;;;;;10.77;100.00;100619.22;5010045;28;20470;-73
2022/04/05 10:55:03;;;;;;;8.80;6.38;;;;;;;10.80;100.00;100620.78;5009477;28;20310;-73
2022/04/05 10:57:30;;;;;;;8.13;6.55;;;;;;;10.82;100.00;100611.00;5010503;28;20176;-73
2022/04/05 11:00:04;;;;;;;7.70;6.20;;;;;;;10.84;100.00;100615.19;5010311;28;20080;-73
2022/04/05 11:02:48;;;;;;;8.35;5.72;;;;;;;10.87;100.00;100612.31;5009858;28;20034;-73
2022/04/05 11:05:14;;;;;;;9.73;6.03;;;;;;;10.91;100.00;100615.53;4991521;28;20058;-73
2022/04/05 11:07:51;;;;;;;9.32;5.35;;;;;;;10.94;99.65;100610.84;4991111;28;20054;-73
2022/04/05 11:10:19;;;;;;;9.25;5.28;;;;;;;10.97;99.81;100620.31;4990603;28;20126;-73
2022/04/05 11:12:44;;;;;;;8.38;5.32;;;;;;;11.00;99.78;100614.78;5005230;28;20022;-72
2022/04/05 11:15:10;;;;;;;7.63;5.55;;;;;;;11.02;99.42;100618.13;4993440;28;20026;-73